sensor_id;sensor_type;location;lat;lon;timestamp;P1;durP1;ratioP1;P2;durP2;ratioP2
7215;SDS011;3649;48.798;9.798;2023-04-01T00:01:28;1.20;;;1.20;;
7215;SDS011;3649;48.798;9.798;2023-04-01T00:03:55;1.10;;;1.10;;
7215;SDS011;3649;48.798;9.798;2023-04-01T00:06:23;1.53;;;1.40;;
7215;SDS011;3649;48.798;9.798;2023-04-01T00:08:51;1.60;;;1.10;;
7215;SDS011;3649;48.798;9.798;2023-04-01T00:11:20;3.07;;;1.20;;
7215;SDS011;3649;48.798;9.798;2023-04-01T00:13:47;1.13;;;1.07;;
7215;SDS011;3649;48.798;9.798;2023-04-01T00:16:14;1.20;;;1.10;;
7215;SDS011;3649;48.798;9.798;2023-04-01T00:18:44;1.90;;;1.60;;
7215;SDS011;3649;48.798;9.798;2023-04-01T00:21:13;2.13;;;1.30;;
7215;SDS011;3649;48.798;9.798;2023-04-01T00:23:40;1.30;;;1.20;;
7215;SDS011;3649;48.798;9.798;2023-04-01T00:26:07;2.63;;;1.33;;
7215;SDS011;3649;48.798;9.798;2023-04-01T00:28:34;1.60;;;1.50;;
7215;SDS011;3649;48.798;9.798;2023-04-01T00:31:06;1.40;;;1.30;;
7215;SDS011;3649;48.798;9.798;2023-04-01T00:33:34;2.87;;;1.30;;
7215;SDS011;3649;48.798;9.798;2023-04-01T00:36:05;2.60;;;1.40;;
7215;SDS011;3649;48.798;9.798;2023-04-01T00:38:51;1.37;;;1.27;;
7215;SDS011;3649;48.798;9.798;2023-04-01T00:41:19;2.90;;;1.40;;
7215;SDS011;3649;48.798;9.798;2023-04-01T00:43:49;3.30;;;1.53;;
7215;SDS011;3649;48.798;9.798;2023-04-01T00:46:19;1.60;;;1.30;;
7215;SDS011;3649;48.798;9.798;2023-04-01T00:48:53;1.53;;;1.33;;
7215;SDS011;3649;48.798;9.798;2023-04-01T00:51:22;3.70;;;2.10;;
7215;SDS011;3649;48.798;9.798;2023-04-01T00:53:52;1.63;;;1.20;;
7215;SDS011;3649;48.798;9.798;2023-04-01T00:56:22;1.40;;;1.20;;
7215;SDS011;3649;48.798;9.798;2023-04-01T00:59:04;2.13;;;1.40;;
7215;SDS011;3649;48.798;9.798;2023-04-01T01:01:40;2.67;;;1.60;;
7215;SDS011;3649;48.798;9.798;2023-04-01T01:04:24;2.67;;;1.63;;
7215;SDS011;3649;48.798;9.798;2023-04-01T01:12:30;2.43;;;1.30;;
7215;SDS011;3649;48.798;9.798;2023-04-01T01:23:39;2.00;;;1.23;;
7215;SDS011;3649;48.798;9.798;2023-04-01T01:37:20;2.07;;;1.30;;
7215;SDS011;3649;48.798;9.798;2023-04-01T01:39:58;3.60;;;1.50;;
7215;SDS011;3649;48.798;9.798;2023-04-01T01:42:33;4.73;;;1.70;;
7215;SDS011;3649;48.798;9.798;2023-04-01T01:45:03;3.00;;;1.60;;
7215;SDS011;3649;48.798;9.798;2023-04-01T01:47:32;2.77;;;1.20;;
7215;SDS011;3649;48.798;9.798;2023-04-01T01:50:01;1.90;;;1.60;;
7215;SDS011;3649;48.798;9.798;2023-04-01T01:52:29;1.30;;;1.30;;
7215;SDS011;3649;48.798;9.798;2023-04-01T01:54:57;1.60;;;1.30;;
7215;SDS011;3649;48.798;9.798;2023-04-01T01:57:33;1.20;;;1.20;;
7215;SDS011;3649;48.798;9.798;2023-04-01T02:00:05;1.13;;;1.13;;
7215;SDS011;3649;48.798;9.798;2023-04-01T02:02:42;1.40;;;1.30;;
7215;SDS011;3649;48.798;9.798;2023-04-01T02:05:14;2.93;;;1.40;;
7215;SDS011;3649;48.798;9.798;2023-04-01T02:07:46;1.80;;;1.40;;
7215;SDS011;3649;48.798;9.798;2023-04-01T02:10:20;2.00;;;1.30;;
7215;SDS011;3649;48.798;9.798;2023-04-01T02:12:51;3.30;;;1.30;;
7215;SDS011;3649;48.798;9.798;2023-04-01T02:15:23;1.23;;;1.10;;
7215;SDS011;3649;48.798;9.798;2023-04-01T02:17:52;1.30;;;1.10;;
7215;SDS011;3649;48.798;9.798;2023-04-01T02:20:22;3.37;;;0.97;;
7215;SDS011;3649;48.798;9.798;2023-04-01T02:22:50;1.10;;;1.00;;
7215;SDS011;3649;48.798;9.798;2023-04-01T02:25:23;1.13;;;1.13;;
7215;SDS011;3649;48.798;9.798;2023-04-01T02:27:55;1.93;;;1.10;;
7215;SDS011;3649;48.798;9.798;2023-04-01T02:30:25;1.30;;;1.30;;
7215;SDS011;3649;48.798;9.798;2023-04-01T02:32:55;1.20;;;1.10;;
7215;SDS011;3649;48.798;9.798;2023-04-01T02:35:24;1.00;;;1.00;;
7215;SDS011;3649;48.798;9.798;2023-04-01T02:37:52;1.77;;;1.03;;
7215;SDS011;3649;48.798;9.798;2023-04-01T02:40:20;1.50;;;1.10;;
7215;SDS011;3649;48.798;9.798;2023-04-01T02:42:47;1.70;;;1.27;;
7215;SDS011;3649;48.798;9.798;2023-04-01T02:45:14;1.40;;;1.00;;
7215;SDS011;3649;48.798;9.798;2023-04-01T02:47:41;1.90;;;0.90;;
7215;SDS011;3649;48.798;9.798;2023-04-01T02:50:08;1.70;;;1.17;;
7215;SDS011;3649;48.798;9.798;2023-04-01T02:52:36;1.37;;;1.20;;
7215;SDS011;3649;48.798;9.798;2023-04-01T02:55:03;1.63;;;1.20;;
7215;SDS011;3649;48.798;9.798;2023-04-01T02:57:31;3.13;;;1.30;;
7215;SDS011;3649;48.798;9.798;2023-04-01T02:59:58;1.07;;;1.03;;
7215;SDS011;3649;48.798;9.798;2023-04-01T03:02:25;1.03;;;1.03;;
7215;SDS011;3649;48.798;9.798;2023-04-01T03:04:52;1.60;;;0.97;;
7215;SDS011;3649;48.798;9.798;2023-04-01T03:07:18;1.30;;;1.20;;
7215;SDS011;3649;48.798;9.798;2023-04-01T03:09:46;1.07;;;0.97;;
7215;SDS011;3649;48.798;9.798;2023-04-01T03:12:12;2.30;;;1.47;;
7215;SDS011;3649;48.798;9.798;2023-04-01T03:14:39;1.03;;;0.97;;
7215;SDS011;3649;48.798;9.798;2023-04-01T03:17:06;1.10;;;1.10;;
7215;SDS011;3649;48.798;9.798;2023-04-01T03:19:33;1.00;;;1.00;;
7215;SDS011;3649;48.798;9.798;2023-04-01T03:22:00;1.30;;;1.20;;
7215;SDS011;3649;48.798;9.798;2023-04-01T03:24:27;1.03;;;1.00;;
7215;SDS011;3649;48.798;9.798;2023-04-01T03:26:54;2.27;;;1.10;;
7215;SDS011;3649;48.798;9.798;2023-04-01T03:29:21;0.90;;;0.90;;
7215;SDS011;3649;48.798;9.798;2023-04-01T03:31:48;1.17;;;0.90;;
7215;SDS011;3649;48.798;9.798;2023-04-01T03:34:14;1.20;;;1.20;;
7215;SDS011;3649;48.798;9.798;2023-04-01T03:36:41;1.20;;;1.10;;
7215;SDS011;3649;48.798;9.798;2023-04-01T03:39:08;0.90;;;0.90;;
7215;SDS011;3649;48.798;9.798;2023-04-01T03:41:36;0.90;;;0.90;;
7215;SDS011;3649;48.798;9.798;2023-04-01T03:44:04;1.10;;;1.10;;
7215;SDS011;3649;48.798;9.798;2023-04-01T03:46:31;1.37;;;0.80;;
7215;SDS011;3649;48.798;9.798;2023-04-01T03:48:58;1.80;;;1.23;;
7215;SDS011;3649;48.798;9.798;2023-04-01T03:51:25;1.10;;;1.10;;
7215;SDS011;3649;48.798;9.798;2023-04-01T03:53:52;0.90;;;0.90;;
7215;SDS011;3649;48.798;9.798;2023-04-01T03:56:18;2.77;;;1.20;;
7215;SDS011;3649;48.798;9.798;2023-04-01T03:58:45;1.10;;;0.97;;
7215;SDS011;3649;48.798;9.798;2023-04-01T04:01:13;1.30;;;0.97;;
7215;SDS011;3649;48.798;9.798;2023-04-01T04:03:44;1.00;;;1.00;;
7215;SDS011;3649;48.798;9.798;2023-04-01T04:06:15;1.00;;;1.00;;
7215;SDS011;3649;48.798;9.798;2023-04-01T04:08:43;1.73;;;1.10;;
7215;SDS011;3649;48.798;9.798;2023-04-01T04:11:11;1.00;;;1.00;;
7215;SDS011;3649;48.798;9.798;2023-04-01T04:13:38;0.90;;;0.90;;
7215;SDS011;3649;48.798;9.798;2023-04-01T04:16:05;0.93;;;0.93;;
7215;SDS011;3649;48.798;9.798;2023-04-01T04:18:32;0.90;;;0.90;;
7215;SDS011;3649;48.798;9.798;2023-04-01T04:20:59;1.20;;;1.20;;
7215;SDS011;3649;48.798;9.798;2023-04-01T04:23:26;0.93;;;0.93;;
7215;SDS011;3649;48.798;9.798;2023-04-01T04:25:58;1.00;;;1.00;;
7215;SDS011;3649;48.798;9.798;2023-04-01T04:28:32;1.60;;;1.10;;
7215;SDS011;3649;48.798;9.798;2023-04-01T04:31:00;1.13;;;1.13;;
7215;SDS011;3649;48.798;9.798;2023-04-01T04:33:27;1.00;;;1.00;;
7215;SDS011;3649;48.798;9.798;2023-04-01T04:35:55;1.20;;;1.10;;
7215;SDS011;3649;48.798;9.798;2023-04-01T04:38:23;1.00;;;1.00;;
7215;SDS011;3649;48.798;9.798;2023-04-01T04:40:50;0.80;;;0.80;;
7215;SDS011;3649;48.798;9.798;2023-04-01T04:43:19;1.23;;;1.03;;
7215;SDS011;3649;48.798;9.798;2023-04-01T04:45:47;1.10;;;1.10;;
7215;SDS011;3649;48.798;9.798;2023-04-01T04:48:14;1.07;;;1.07;;
7215;SDS011;3649;48.798;9.798;2023-04-01T04:50:47;1.03;;;1.03;;
7215;SDS011;3649;48.798;9.798;2023-04-01T04:53:16;1.70;;;1.13;;
7215;SDS011;3649;48.798;9.798;2023-04-01T04:55:45;1.37;;;1.20;;
7215;SDS011;3649;48.798;9.798;2023-04-01T04:58:13;1.87;;;1.00;;
7215;SDS011;3649;48.798;9.798;2023-04-01T05:00:41;1.50;;;1.03;;
7215;SDS011;3649;48.798;9.798;2023-04-01T05:03:08;1.57;;;1.10;;
7215;SDS011;3649;48.798;9.798;2023-04-01T05:05:35;1.37;;;1.20;;
7215;SDS011;3649;48.798;9.798;2023-04-01T05:08:02;1.00;;;1.00;;
7215;SDS011;3649;48.798;9.798;2023-04-01T05:10:31;0.90;;;0.90;;
7215;SDS011;3649;48.798;9.798;2023-04-01T05:12:58;1.37;;;1.00;;
7215;SDS011;3649;48.798;9.798;2023-04-01T05:15:24;2.83;;;1.20;;
7215;SDS011;3649;48.798;9.798;2023-04-01T05:17:51;1.13;;;1.03;;
7215;SDS011;3649;48.798;9.798;2023-04-01T05:20:18;1.53;;;1.00;;
7215;SDS011;3649;48.798;9.798;2023-04-01T05:22:45;1.07;;;1.00;;
7215;SDS011;3649;48.798;9.798;2023-04-01T05:25:12;1.53;;;1.20;;
7215;SDS011;3649;48.798;9.798;2023-04-01T05:27:39;1.60;;;1.17;;
7215;SDS011;3649;48.798;9.798;2023-04-01T05:30:06;1.07;;;1.00;;
7215;SDS011;3649;48.798;9.798;2023-04-01T05:32:33;2.07;;;1.30;;
7215;SDS011;3649;48.798;9.798;2023-04-01T05:35:00;1.57;;;1.47;;
7215;SDS011;3649;48.798;9.798;2023-04-01T05:37:27;3.47;;;1.20;;
7215;SDS011;3649;48.798;9.798;2023-04-01T05:39:54;3.07;;;1.40;;
7215;SDS011;3649;48.798;9.798;2023-04-01T05:42:21;1.03;;;1.03;;
7215;SDS011;3649;48.798;9.798;2023-04-01T05:44:47;2.90;;;1.43;;
7215;SDS011;3649;48.798;9.798;2023-04-01T05:47:14;1.20;;;1.20;;
7215;SDS011;3649;48.798;9.798;2023-04-01T05:49:41;1.83;;;1.40;;
7215;SDS011;3649;48.798;9.798;2023-04-01T05:52:08;1.40;;;1.30;;
7215;SDS011;3649;48.798;9.798;2023-04-01T05:54:35;1.10;;;1.10;;
7215;SDS011;3649;48.798;9.798;2023-04-01T05:57:02;1.67;;;1.30;;
7215;SDS011;3649;48.798;9.798;2023-04-01T05:59:31;1.33;;;1.23;;
7215;SDS011;3649;48.798;9.798;2023-04-01T06:01:58;2.40;;;1.27;;
7215;SDS011;3649;48.798;9.798;2023-04-01T06:04:26;1.97;;;1.30;;
7215;SDS011;3649;48.798;9.798;2023-04-01T06:06:58;1.10;;;1.10;;
7215;SDS011;3649;48.798;9.798;2023-04-01T06:09:26;1.40;;;1.30;;
7215;SDS011;3649;48.798;9.798;2023-04-01T06:17:30;1.17;;;1.17;;
7215;SDS011;3649;48.798;9.798;2023-04-01T06:20:07;1.50;;;1.40;;
7215;SDS011;3649;48.798;9.798;2023-04-01T06:25:47;1.73;;;1.20;;
7215;SDS011;3649;48.798;9.798;2023-04-01T06:34:31;1.37;;;1.27;;
7215;SDS011;3649;48.798;9.798;2023-04-01T06:37:32;2.03;;;1.33;;
7215;SDS011;3649;48.798;9.798;2023-04-01T06:43:10;1.10;;;1.00;;
7215;SDS011;3649;48.798;9.798;2023-04-01T06:54:02;1.53;;;1.10;;
7215;SDS011;3649;48.798;9.798;2023-04-01T06:56:45;2.27;;;1.00;;
7215;SDS011;3649;48.798;9.798;2023-04-01T06:59:35;2.30;;;1.23;;
7215;SDS011;3649;48.798;9.798;2023-04-01T07:04:40;1.37;;;1.10;;
7215;SDS011;3649;48.798;9.798;2023-04-01T07:09:52;1.20;;;1.20;;
7215;SDS011;3649;48.798;9.798;2023-04-01T07:12:26;1.30;;;1.20;;
7215;SDS011;3649;48.798;9.798;2023-04-01T07:15:19;1.90;;;1.20;;
7215;SDS011;3649;48.798;9.798;2023-04-01T07:18:37;1.40;;;1.30;;
7215;SDS011;3649;48.798;9.798;2023-04-01T07:20:51;1.50;;;1.40;;
7215;SDS011;3649;48.798;9.798;2023-04-01T07:23:23;3.20;;;1.20;;
7215;SDS011;3649;48.798;9.798;2023-04-01T07:25:58;1.23;;;1.23;;
7215;SDS011;3649;48.798;9.798;2023-04-01T07:28:31;1.43;;;1.33;;
7215;SDS011;3649;48.798;9.798;2023-04-01T07:36:39;2.20;;;1.43;;
7215;SDS011;3649;48.798;9.798;2023-04-01T07:42:09;2.63;;;1.23;;
7215;SDS011;3649;48.798;9.798;2023-04-01T07:45:04;1.10;;;1.10;;
7215;SDS011;3649;48.798;9.798;2023-04-01T07:48:01;3.07;;;1.30;;
7215;SDS011;3649;48.798;9.798;2023-04-01T07:53:16;1.30;;;1.20;;
7215;SDS011;3649;48.798;9.798;2023-04-01T07:55:56;1.33;;;1.23;;
7215;SDS011;3649;48.798;9.798;2023-04-01T07:58:33;1.00;;;1.00;;
7215;SDS011;3649;48.798;9.798;2023-04-01T08:01:22;1.33;;;1.23;;
7215;SDS011;3649;48.798;9.798;2023-04-01T08:03:54;1.07;;;1.07;;
7215;SDS011;3649;48.798;9.798;2023-04-01T08:06:37;1.03;;;1.03;;
7215;SDS011;3649;48.798;9.798;2023-04-01T08:09:17;1.50;;;1.40;;
7215;SDS011;3649;48.798;9.798;2023-04-01T08:12:16;1.43;;;1.33;;
7215;SDS011;3649;48.798;9.798;2023-04-01T08:18:23;1.87;;;1.10;;
7215;SDS011;3649;48.798;9.798;2023-04-01T08:20:28;1.10;;;1.10;;
7215;SDS011;3649;48.798;9.798;2023-04-01T08:25:34;1.20;;;1.10;;
7215;SDS011;3649;48.798;9.798;2023-04-01T08:30:38;1.10;;;1.00;;
7215;SDS011;3649;48.798;9.798;2023-04-01T08:33:29;2.40;;;1.10;;
7215;SDS011;3649;48.798;9.798;2023-04-01T08:36:11;1.03;;;1.03;;
7215;SDS011;3649;48.798;9.798;2023-04-01T08:39:04;1.20;;;1.20;;
7215;SDS011;3649;48.798;9.798;2023-04-01T08:44:34;2.00;;;1.37;;
7215;SDS011;3649;48.798;9.798;2023-04-01T08:47:36;1.73;;;1.50;;
7215;SDS011;3649;48.798;9.798;2023-04-01T08:56:20;0.97;;;0.97;;
7215;SDS011;3649;48.798;9.798;2023-04-01T08:59:13;0.97;;;0.97;;
7215;SDS011;3649;48.798;9.798;2023-04-01T09:02:18;2.33;;;1.27;;
7215;SDS011;3649;48.798;9.798;2023-04-01T09:13:43;1.43;;;1.13;;
7215;SDS011;3649;48.798;9.798;2023-04-01T09:25:22;1.00;;;1.00;;
7215;SDS011;3649;48.798;9.798;2023-04-01T09:28:20;0.83;;;0.83;;
7215;SDS011;3649;48.798;9.798;2023-04-01T09:33:42;2.70;;;1.40;;
7215;SDS011;3649;48.798;9.798;2023-04-01T09:41:30;1.37;;;1.13;;
7215;SDS011;3649;48.798;9.798;2023-04-01T09:46:35;1.17;;;1.17;;
7215;SDS011;3649;48.798;9.798;2023-04-01T09:57:07;2.00;;;1.80;;
7215;SDS011;3649;48.798;9.798;2023-04-01T10:00:03;6.03;;;2.30;;
7215;SDS011;3649;48.798;9.798;2023-04-01T10:08:50;0.90;;;0.90;;
7215;SDS011;3649;48.798;9.798;2023-04-01T10:25:11;1.43;;;1.30;;
7215;SDS011;3649;48.798;9.798;2023-04-01T10:30:57;1.20;;;1.20;;
7215;SDS011;3649;48.798;9.798;2023-04-01T10:44:41;1.00;;;1.00;;
7215;SDS011;3649;48.798;9.798;2023-04-01T10:50:35;0.97;;;0.97;;
7215;SDS011;3649;48.798;9.798;2023-04-01T10:53:31;1.03;;;1.03;;
7215;SDS011;3649;48.798;9.798;2023-04-01T10:56:25;2.23;;;1.20;;
7215;SDS011;3649;48.798;9.798;2023-04-01T10:59:23;2.00;;;1.23;;
7215;SDS011;3649;48.798;9.798;2023-04-01T11:19:42;1.13;;;1.10;;
7215;SDS011;3649;48.798;9.798;2023-04-01T11:42:07;1.40;;;1.30;;
7215;SDS011;3649;48.798;9.798;2023-04-01T11:44:39;3.53;;;1.10;;
7215;SDS011;3649;48.798;9.798;2023-04-01T11:58:45;1.00;;;1.00;;
7215;SDS011;3649;48.798;9.798;2023-04-01T12:04:54;2.00;;;1.37;;
7215;SDS011;3649;48.798;9.798;2023-04-01T12:16:07;2.50;;;1.20;;
7215;SDS011;3649;48.798;9.798;2023-04-01T12:21:52;1.30;;;1.07;;
7215;SDS011;3649;48.798;9.798;2023-04-01T12:24:52;1.40;;;1.30;;
7215;SDS011;3649;48.798;9.798;2023-04-01T12:50:02;0.90;;;0.90;;
7215;SDS011;3649;48.798;9.798;2023-04-01T12:52:18;1.40;;;1.30;;
7215;SDS011;3649;48.798;9.798;2023-04-01T13:03:31;1.20;;;1.20;;
7215;SDS011;3649;48.798;9.798;2023-04-01T13:17:36;1.23;;;1.10;;
7215;SDS011;3649;48.798;9.798;2023-04-01T13:28:43;1.17;;;1.17;;
7215;SDS011;3649;48.798;9.798;2023-04-01T13:34:03;1.50;;;1.40;;
7215;SDS011;3649;48.798;9.798;2023-04-01T13:36:59;1.30;;;1.30;;
7215;SDS011;3649;48.798;9.798;2023-04-01T13:39:35;1.20;;;1.20;;
7215;SDS011;3649;48.798;9.798;2023-04-01T13:56:05;1.10;;;1.10;;
7215;SDS011;3649;48.798;9.798;2023-04-01T14:10:25;1.23;;;1.20;;
7215;SDS011;3649;48.798;9.798;2023-04-01T14:13:12;1.10;;;1.10;;
7215;SDS011;3649;48.798;9.798;2023-04-01T14:21:31;1.23;;;1.20;;
7215;SDS011;3649;48.798;9.798;2023-04-01T14:32:16;1.40;;;1.33;;
7215;SDS011;3649;48.798;9.798;2023-04-01T14:49:35;0.97;;;0.97;;
7215;SDS011;3649;48.798;9.798;2023-04-01T14:52:13;1.00;;;1.00;;
7215;SDS011;3649;48.798;9.798;2023-04-01T14:54:49;1.10;;;1.10;;
7215;SDS011;3649;48.798;9.798;2023-04-01T14:57:28;1.10;;;1.00;;
7215;SDS011;3649;48.798;9.798;2023-04-01T15:00:17;1.80;;;1.40;;
7215;SDS011;3649;48.798;9.798;2023-04-01T15:05:31;2.07;;;1.20;;
7215;SDS011;3649;48.798;9.798;2023-04-01T15:10:49;2.27;;;2.07;;
7215;SDS011;3649;48.798;9.798;2023-04-01T15:36:02;1.40;;;1.40;;
7215;SDS011;3649;48.798;9.798;2023-04-01T15:38:52;1.17;;;1.03;;
7215;SDS011;3649;48.798;9.798;2023-04-01T15:41:45;1.30;;;1.20;;
7215;SDS011;3649;48.798;9.798;2023-04-01T15:47:31;2.30;;;1.10;;
7215;SDS011;3649;48.798;9.798;2023-04-01T15:53:05;1.77;;;1.20;;
7215;SDS011;3649;48.798;9.798;2023-04-01T15:55:59;1.10;;;1.10;;
7215;SDS011;3649;48.798;9.798;2023-04-01T15:58:48;1.10;;;1.10;;
7215;SDS011;3649;48.798;9.798;2023-04-01T16:10:21;0.90;;;0.90;;
7215;SDS011;3649;48.798;9.798;2023-04-01T16:21:05;2.07;;;1.87;;
7215;SDS011;3649;48.798;9.798;2023-04-01T16:24:02;1.27;;;1.27;;
7215;SDS011;3649;48.798;9.798;2023-04-01T16:26:55;1.30;;;1.30;;
7215;SDS011;3649;48.798;9.798;2023-04-01T16:29:28;2.83;;;1.37;;
7215;SDS011;3649;48.798;9.798;2023-04-01T16:37:34;1.30;;;1.30;;
7215;SDS011;3649;48.798;9.798;2023-04-01T16:45:43;1.73;;;1.50;;
7215;SDS011;3649;48.798;9.798;2023-04-01T16:48:23;1.60;;;1.50;;
7215;SDS011;3649;48.798;9.798;2023-04-01T16:51:13;1.27;;;1.27;;
7215;SDS011;3649;48.798;9.798;2023-04-01T16:53:49;2.40;;;1.60;;
7215;SDS011;3649;48.798;9.798;2023-04-01T16:56:36;3.07;;;1.43;;
7215;SDS011;3649;48.798;9.798;2023-04-01T16:59:15;1.80;;;1.70;;
7215;SDS011;3649;48.798;9.798;2023-04-01T17:18:35;1.20;;;1.20;;
7215;SDS011;3649;48.798;9.798;2023-04-01T17:24:03;3.10;;;1.47;;
7215;SDS011;3649;48.798;9.798;2023-04-01T17:26:37;1.40;;;1.30;;
7215;SDS011;3649;48.798;9.798;2023-04-01T17:29:21;1.57;;;1.40;;
7215;SDS011;3649;48.798;9.798;2023-04-01T17:32:20;1.47;;;1.30;;
7215;SDS011;3649;48.798;9.798;2023-04-01T17:52:06;2.43;;;2.13;;
7215;SDS011;3649;48.798;9.798;2023-04-01T17:55:11;3.10;;;2.10;;
7215;SDS011;3649;48.798;9.798;2023-04-01T17:57:46;2.30;;;2.17;;
7215;SDS011;3649;48.798;9.798;2023-04-01T18:00:24;2.87;;;2.30;;
7215;SDS011;3649;48.798;9.798;2023-04-01T18:03:41;2.57;;;2.37;;
7215;SDS011;3649;48.798;9.798;2023-04-01T18:18:08;3.47;;;2.17;;
7215;SDS011;3649;48.798;9.798;2023-04-01T18:20:59;1.90;;;1.80;;
7215;SDS011;3649;48.798;9.798;2023-04-01T18:23:40;2.00;;;1.90;;
7215;SDS011;3649;48.798;9.798;2023-04-01T18:29:04;1.93;;;1.80;;
7215;SDS011;3649;48.798;9.798;2023-04-01T18:34:57;2.33;;;2.07;;
7215;SDS011;3649;48.798;9.798;2023-04-01T18:37:44;2.10;;;2.00;;
7215;SDS011;3649;48.798;9.798;2023-04-01T18:43:39;3.17;;;2.20;;
7215;SDS011;3649;48.798;9.798;2023-04-01T18:49:17;2.30;;;1.97;;
7215;SDS011;3649;48.798;9.798;2023-04-01T18:52:10;2.60;;;2.03;;
7215;SDS011;3649;48.798;9.798;2023-04-01T18:54:41;3.37;;;1.73;;
7215;SDS011;3649;48.798;9.798;2023-04-01T18:57:13;2.13;;;1.73;;
7215;SDS011;3649;48.798;9.798;2023-04-01T18:59:46;3.60;;;2.00;;
7215;SDS011;3649;48.798;9.798;2023-04-01T19:02:43;1.93;;;1.43;;
7215;SDS011;3649;48.798;9.798;2023-04-01T19:05:18;3.33;;;1.90;;
7215;SDS011;3649;48.798;9.798;2023-04-01T19:07:50;3.23;;;2.10;;
7215;SDS011;3649;48.798;9.798;2023-04-01T19:10:24;2.03;;;1.90;;
7215;SDS011;3649;48.798;9.798;2023-04-01T19:15:51;2.20;;;2.07;;
7215;SDS011;3649;48.798;9.798;2023-04-01T19:21:27;3.53;;;2.63;;
7215;SDS011;3649;48.798;9.798;2023-04-01T19:38:12;4.23;;;2.67;;
7215;SDS011;3649;48.798;9.798;2023-04-01T19:40:49;3.63;;;3.20;;
7215;SDS011;3649;48.798;9.798;2023-04-01T19:56:57;4.37;;;2.87;;
7215;SDS011;3649;48.798;9.798;2023-04-01T19:59:38;2.30;;;2.10;;
7215;SDS011;3649;48.798;9.798;2023-04-01T20:05:48;3.67;;;3.30;;
7215;SDS011;3649;48.798;9.798;2023-04-01T20:07:52;2.00;;;1.90;;
7215;SDS011;3649;48.798;9.798;2023-04-01T20:10:25;2.70;;;2.50;;
7215;SDS011;3649;48.798;9.798;2023-04-01T20:13:05;3.33;;;2.13;;
7215;SDS011;3649;48.798;9.798;2023-04-01T20:16:00;4.53;;;2.10;;
7215;SDS011;3649;48.798;9.798;2023-04-01T20:23:41;3.23;;;2.13;;
7215;SDS011;3649;48.798;9.798;2023-04-01T20:26:13;2.33;;;2.20;;
7215;SDS011;3649;48.798;9.798;2023-04-01T20:31:41;1.90;;;1.80;;
7215;SDS011;3649;48.798;9.798;2023-04-01T20:34:13;2.43;;;2.23;;
7215;SDS011;3649;48.798;9.798;2023-04-01T20:42:51;1.53;;;1.43;;
7215;SDS011;3649;48.798;9.798;2023-04-01T20:45:56;2.40;;;1.70;;
7215;SDS011;3649;48.798;9.798;2023-04-01T20:51:16;2.87;;;2.43;;
7215;SDS011;3649;48.798;9.798;2023-04-01T20:54:05;2.23;;;2.03;;
7215;SDS011;3649;48.798;9.798;2023-04-01T20:56:49;2.40;;;2.17;;
7215;SDS011;3649;48.798;9.798;2023-04-01T21:02:38;2.70;;;2.00;;
7215;SDS011;3649;48.798;9.798;2023-04-01T21:11:18;2.13;;;1.90;;
7215;SDS011;3649;48.798;9.798;2023-04-01T21:22:17;2.10;;;1.67;;
7215;SDS011;3649;48.798;9.798;2023-04-01T21:36:00;1.70;;;1.43;;
7215;SDS011;3649;48.798;9.798;2023-04-01T21:39:00;4.17;;;2.13;;
7215;SDS011;3649;48.798;9.798;2023-04-01T22:12:09;3.43;;;1.90;;
7215;SDS011;3649;48.798;9.798;2023-04-01T22:25:44;1.80;;;1.70;;
7215;SDS011;3649;48.798;9.798;2023-04-01T22:28:30;2.40;;;2.20;;
7215;SDS011;3649;48.798;9.798;2023-04-01T22:31:12;2.07;;;1.97;;
7215;SDS011;3649;48.798;9.798;2023-04-01T22:36:23;2.27;;;1.70;;
7215;SDS011;3649;48.798;9.798;2023-04-01T22:42:02;2.53;;;1.97;;
7215;SDS011;3649;48.798;9.798;2023-04-01T22:44:43;2.17;;;2.07;;
7215;SDS011;3649;48.798;9.798;2023-04-01T22:47:39;2.43;;;2.10;;
7215;SDS011;3649;48.798;9.798;2023-04-01T22:53:08;1.53;;;1.50;;
7215;SDS011;3649;48.798;9.798;2023-04-01T22:56:04;2.13;;;1.73;;
7215;SDS011;3649;48.798;9.798;2023-04-01T22:58:38;1.80;;;1.70;;
7215;SDS011;3649;48.798;9.798;2023-04-01T23:04:00;3.93;;;2.10;;
7215;SDS011;3649;48.798;9.798;2023-04-01T23:06:41;2.90;;;2.60;;
7215;SDS011;3649;48.798;9.798;2023-04-01T23:09:46;6.47;;;5.40;;
7215;SDS011;3649;48.798;9.798;2023-04-01T23:12:07;2.80;;;2.30;;
7215;SDS011;3649;48.798;9.798;2023-04-01T23:14:47;2.07;;;1.97;;
7215;SDS011;3649;48.798;9.798;2023-04-01T23:20:05;2.13;;;1.70;;
7215;SDS011;3649;48.798;9.798;2023-04-01T23:26:08;1.70;;;1.60;;
7215;SDS011;3649;48.798;9.798;2023-04-01T23:28:45;1.70;;;1.60;;
7215;SDS011;3649;48.798;9.798;2023-04-01T23:31:25;1.90;;;1.80;;
7215;SDS011;3649;48.798;9.798;2023-04-01T23:34:00;1.70;;;1.57;;
7215;SDS011;3649;48.798;9.798;2023-04-01T23:36:30;2.33;;;1.57;;
7215;SDS011;3649;48.798;9.798;2023-04-01T23:39:05;1.90;;;1.80;;
7215;SDS011;3649;48.798;9.798;2023-04-01T23:41:43;1.80;;;1.70;;
7215;SDS011;3649;48.798;9.798;2023-04-01T23:44:11;1.70;;;1.60;;
7215;SDS011;3649;48.798;9.798;2023-04-01T23:46:40;1.70;;;1.60;;
7215;SDS011;3649;48.798;9.798;2023-04-01T23:49:16;1.87;;;1.70;;
7215;SDS011;3649;48.798;9.798;2023-04-01T23:51:53;1.30;;;1.30;;
7215;SDS011;3649;48.798;9.798;2023-04-01T23:54:33;1.53;;;1.47;;
7215;SDS011;3649;48.798;9.798;2023-04-01T23:57:15;1.50;;;1.40;;
